Terminal Aerodrome Forecast
Issued by NWS El Paso, TX

Home | Current Version | Previous Version | Text Only | Print | Product List | Glossary On
Versions: 1 2 3 4 5 6 7 8 9 10 11 12 13 14 15 16
781
FTUS44 KEPZ 290534
TAFELP
TAF
KELP 290534Z 2906/3006 25015G25KT P6SM SCT120
     FM291700 28022G32KT P6SM SKC
     FM300300 28011KT P6SM SKC=

USA.gov is the U.S. government's official web portal to all federal, state and local government web resources and services.